< < Back
Terminal Aerodrome Forecast


Current Version              Previous Versions:   1  2  3  4  5  6  7  8  9  

Terminal Aerodrome Forecast

623
FTUS42 KFFC 311742
TAFCSG
TAF
KCSG 311742Z 3118/0118 VRB05KT P6SM VCSH BKN050
      TEMPO 3118/3122 VRB10G20KT 5SM -TSRA BKN050CB
     FM010100 04003KT P6SM SCT060
     FM010300 03003KT P6SM FEW250
     FM011500 05004KT P6SM FEW040=

Latest METAR

819
SAUS70 KWBC 311854
MTRCSG
METAR KCSG 311851Z 28006KT 10SM FEW047 34/22 A2989 RMK AO2 LTG DSNT E
SLP116 T03440217


USA.gov is the U.S. government's official web portal to all federal, state and local government web resources and services.